sensor_id;sensor_type;location;lat;lon;timestamp;pressure;altitude;pressure_sealevel;temperature;humidity
50057;BME280;36875;49.468;11.200;2023-10-13T00:01:30;98027.72;;;21.95;52.85
50057;BME280;36875;49.468;11.200;2023-10-13T00:03:55;98026.91;;;21.94;53.09
50057;BME280;36875;49.468;11.200;2023-10-13T00:06:21;98028.84;;;21.94;52.81
50057;BME280;36875;49.468;11.200;2023-10-13T00:08:46;98013.56;;;21.93;52.76
50057;BME280;36875;49.468;11.200;2023-10-13T00:11:12;98022.09;;;21.91;53.01
50057;BME280;36875;49.468;11.200;2023-10-13T00:13:38;98018.56;;;21.91;52.99
50057;BME280;36875;49.468;11.200;2023-10-13T00:16:18;98018.03;;;21.89;53.00
50057;BME280;36875;49.468;11.200;2023-10-13T00:18:47;98026.59;;;21.87;52.91
50057;BME280;36875;49.468;11.200;2023-10-13T00:21:13;98027.41;;;21.88;53.13
50057;BME280;36875;49.468;11.200;2023-10-13T00:23:39;98033.19;;;21.86;52.96
50057;BME280;36875;49.468;11.200;2023-10-13T00:26:17;98015.97;;;21.86;52.99
50057;BME280;36875;49.468;11.200;2023-10-13T00:28:43;98021.75;;;21.84;52.97
50057;BME280;36875;49.468;11.200;2023-10-13T00:31:12;98017.41;;;21.83;52.87
50057;BME280;36875;49.468;11.200;2023-10-13T00:33:41;98019.66;;;21.81;52.89
50057;BME280;36875;49.468;11.200;2023-10-13T00:36:07;98003.53;;;21.80;52.89
50057;BME280;36875;49.468;11.200;2023-10-13T00:38:34;97996.94;;;21.81;52.97
50057;BME280;36875;49.468;11.200;2023-10-13T00:41:00;98007.09;;;21.80;52.99
50057;BME280;36875;49.468;11.200;2023-10-13T00:43:44;98001.94;;;21.79;53.06
50057;BME280;36875;49.468;11.200;2023-10-13T00:46:11;98013.22;;;21.77;53.04
50057;BME280;36875;49.468;11.200;2023-10-13T00:48:42;98008.03;;;21.75;52.96
50057;BME280;36875;49.468;11.200;2023-10-13T00:51:12;98006.44;;;21.74;53.00
50057;BME280;36875;49.468;11.200;2023-10-13T00:53:48;97993.06;;;21.73;53.23
50057;BME280;36875;49.468;11.200;2023-10-13T00:56:14;97993.88;;;21.73;53.04
50057;BME280;36875;49.468;11.200;2023-10-13T00:58:48;97990.66;;;21.71;53.14
50057;BME280;36875;49.468;11.200;2023-10-13T01:01:18;97986.28;;;21.70;53.17
50057;BME280;36875;49.468;11.200;2023-10-13T01:03:48;97983.06;;;21.68;52.96
50057;BME280;36875;49.468;11.200;2023-10-13T01:06:16;97994.84;;;21.69;53.24
50057;BME280;36875;49.468;11.200;2023-10-13T01:08:43;97999.50;;;21.68;53.30
50057;BME280;36875;49.468;11.200;2023-10-13T01:11:09;97999.81;;;21.67;53.28
50057;BME280;36875;49.468;11.200;2023-10-13T01:13:36;98007.72;;;21.68;52.85
50057;BME280;36875;49.468;11.200;2023-10-13T01:16:02;98013.50;;;21.67;53.23
50057;BME280;36875;49.468;11.200;2023-10-13T01:18:28;98020.91;;;21.66;52.99
50057;BME280;36875;49.468;11.200;2023-10-13T01:20:55;98008.38;;;21.65;53.14
50057;BME280;36875;49.468;11.200;2023-10-13T01:23:26;97999.63;;;21.63;53.12
50057;BME280;36875;49.468;11.200;2023-10-13T01:25:53;97992.56;;;21.62;53.05
50057;BME280;36875;49.468;11.200;2023-10-13T01:28:19;97996.41;;;21.61;53.13
50057;BME280;36875;49.468;11.200;2023-10-13T01:30:47;97985.28;;;21.58;53.20
50057;BME280;36875;49.468;11.200;2023-10-13T01:33:15;97997.56;;;21.60;53.04
50057;BME280;36875;49.468;11.200;2023-10-13T01:35:41;98000.31;;;21.60;53.25
50057;BME280;36875;49.468;11.200;2023-10-13T01:38:13;97991.78;;;21.62;53.25
50057;BME280;36875;49.468;11.200;2023-10-13T01:40:40;97986.91;;;21.59;53.24
50057;BME280;36875;49.468;11.200;2023-10-13T01:43:08;97983.22;;;21.54;53.49
50057;BME280;36875;49.468;11.200;2023-10-13T01:45:36;97988.88;;;21.58;53.18
50057;BME280;36875;49.468;11.200;2023-10-13T01:48:04;97988.38;;;21.56;53.09
50057;BME280;36875;49.468;11.200;2023-10-13T01:50:31;97997.72;;;21.55;53.32
50057;BME280;36875;49.468;11.200;2023-10-13T01:52:59;98008.19;;;21.53;53.24
50057;BME280;36875;49.468;11.200;2023-10-13T01:55:38;97994.00;;;21.51;53.24
50057;BME280;36875;49.468;11.200;2023-10-13T01:58:09;97996.75;;;21.51;53.30
50057;BME280;36875;49.468;11.200;2023-10-13T02:00:41;97984.97;;;21.50;53.24
50057;BME280;36875;49.468;11.200;2023-10-13T02:03:08;97990.44;;;21.50;53.52
50057;BME280;36875;49.468;11.200;2023-10-13T02:05:40;97988.03;;;21.49;53.54
50057;BME280;36875;49.468;11.200;2023-10-13T02:08:09;97987.22;;;21.48;53.45
50057;BME280;36875;49.468;11.200;2023-10-13T02:10:35;97984.81;;;21.47;53.28
50057;BME280;36875;49.468;11.200;2023-10-13T02:13:12;97989.78;;;21.45;53.40
50057;BME280;36875;49.468;11.200;2023-10-13T02:15:41;97987.03;;;21.45;53.34
50057;BME280;36875;49.468;11.200;2023-10-13T02:18:08;97977.19;;;21.44;53.60
50057;BME280;36875;49.468;11.200;2023-10-13T02:20:34;97987.34;;;21.43;53.38
50057;BME280;36875;49.468;11.200;2023-10-13T02:23:06;97985.72;;;21.42;53.48
50057;BME280;36875;49.468;11.200;2023-10-13T02:25:36;97979.47;;;21.42;53.46
50057;BME280;36875;49.468;11.200;2023-10-13T02:28:09;97980.56;;;21.41;53.44
50057;BME280;36875;49.468;11.200;2023-10-13T02:30:39;97974.28;;;21.40;53.33
50057;BME280;36875;49.468;11.200;2023-10-13T02:33:12;97975.41;;;21.39;53.48
50057;BME280;36875;49.468;11.200;2023-10-13T02:35:38;97969.13;;;21.38;53.61
50057;BME280;36875;49.468;11.200;2023-10-13T02:38:07;97969.44;;;21.37;53.50
50057;BME280;36875;49.468;11.200;2023-10-13T02:40:37;97968.97;;;21.35;53.55
50057;BME280;36875;49.468;11.200;2023-10-13T02:43:03;97970.91;;;21.34;53.40
50057;BME280;36875;49.468;11.200;2023-10-13T02:45:32;97974.75;;;21.33;53.56
50057;BME280;36875;49.468;11.200;2023-10-13T02:47:57;97970.91;;;21.34;53.61
50057;BME280;36875;49.468;11.200;2023-10-13T02:50:38;97969.28;;;21.33;53.31
50057;BME280;36875;49.468;11.200;2023-10-13T02:53:04;97958.31;;;21.33;53.56
50057;BME280;36875;49.468;11.200;2023-10-13T02:55:37;97960.25;;;21.33;53.59
50057;BME280;36875;49.468;11.200;2023-10-13T02:58:04;97957.03;;;21.31;53.56
50057;BME280;36875;49.468;11.200;2023-10-13T03:00:29;97952.69;;;21.30;53.52
50057;BME280;36875;49.468;11.200;2023-10-13T03:02:58;97947.53;;;21.28;53.65
50057;BME280;36875;49.468;11.200;2023-10-13T03:05:24;97950.25;;;21.28;53.59
50057;BME280;36875;49.468;11.200;2023-10-13T03:07:49;97950.59;;;21.27;53.74
50057;BME280;36875;49.468;11.200;2023-10-13T03:10:16;97947.03;;;21.26;53.66
50057;BME280;36875;49.468;11.200;2023-10-13T03:12:44;97947.88;;;21.27;53.74
50057;BME280;36875;49.468;11.200;2023-10-13T03:15:13;97938.81;;;21.26;53.68
50057;BME280;36875;49.468;11.200;2023-10-13T03:17:43;97943.81;;;21.24;53.61
50057;BME280;36875;49.468;11.200;2023-10-13T03:20:11;97950.91;;;21.25;53.70
50057;BME280;36875;49.468;11.200;2023-10-13T03:22:38;97948.50;;;21.24;53.59
50057;BME280;36875;49.468;11.200;2023-10-13T03:25:05;97942.22;;;21.23;53.73
50057;BME280;36875;49.468;11.200;2023-10-13T03:27:32;97935.13;;;21.22;53.69
50057;BME280;36875;49.468;11.200;2023-10-13T03:30:16;97939.78;;;21.22;53.96
50057;BME280;36875;49.468;11.200;2023-10-13T03:32:41;97931.91;;;21.20;53.79
50057;BME280;36875;49.468;11.200;2023-10-13T03:35:22;97931.91;;;21.20;53.66
50057;BME280;36875;49.468;11.200;2023-10-13T03:37:50;97933.84;;;21.20;53.68
50057;BME280;36875;49.468;11.200;2023-10-13T03:40:15;97932.22;;;21.18;53.73
50057;BME280;36875;49.468;11.200;2023-10-13T03:42:47;97927.53;;;21.19;53.75
50057;BME280;36875;49.468;11.200;2023-10-13T03:45:32;97927.06;;;21.17;53.51
50057;BME280;36875;49.468;11.200;2023-10-13T03:48:04;97924.31;;;21.17;53.68
50057;BME280;36875;49.468;11.200;2023-10-13T03:50:39;97925.47;;;21.16;53.76
50057;BME280;36875;49.468;11.200;2023-10-13T03:53:26;97935.56;;;21.15;53.85
50057;BME280;36875;49.468;11.200;2023-10-13T03:55:52;97933.19;;;21.14;53.96
50057;BME280;36875;49.468;11.200;2023-10-13T03:58:33;97936.22;;;21.12;53.81
50057;BME280;36875;49.468;11.200;2023-10-13T04:01:00;97930.44;;;21.14;53.74
50057;BME280;36875;49.468;11.200;2023-10-13T04:03:25;97923.66;;;21.11;53.91
50057;BME280;36875;49.468;11.200;2023-10-13T04:05:59;97924.50;;;21.12;53.83
50057;BME280;36875;49.468;11.200;2023-10-13T04:08:31;97921.25;;;21.10;53.94
50057;BME280;36875;49.468;11.200;2023-10-13T04:11:32;97919.66;;;21.09;53.87
50057;BME280;36875;49.468;11.200;2023-10-13T04:14:23;97923.97;;;21.10;53.92
50057;BME280;36875;49.468;11.200;2023-10-13T04:17:09;97919.66;;;21.09;53.81
50057;BME280;36875;49.468;11.200;2023-10-13T04:19:40;97913.69;;;21.07;54.06
50057;BME280;36875;49.468;11.200;2023-10-13T04:22:26;97904.66;;;21.06;53.78
50057;BME280;36875;49.468;11.200;2023-10-13T04:25:11;97903.84;;;21.06;53.90
50057;BME280;36875;49.468;11.200;2023-10-13T04:27:55;97902.25;;;21.05;53.89
50057;BME280;36875;49.468;11.200;2023-10-13T04:30:41;97910.47;;;21.05;53.96
50057;BME280;36875;49.468;11.200;2023-10-13T04:33:21;97913.50;;;21.03;53.77
50057;BME280;36875;49.468;11.200;2023-10-13T04:36:10;97917.38;;;21.02;54.10
50057;BME280;36875;49.468;11.200;2023-10-13T04:38:41;97910.28;;;21.01;53.94
50057;BME280;36875;49.468;11.200;2023-10-13T04:41:22;97901.25;;;21.01;53.48
50057;BME280;36875;49.468;11.200;2023-10-13T04:43:50;97903.19;;;21.00;54.06
50057;BME280;36875;49.468;11.200;2023-10-13T04:46:23;97901.25;;;21.01;53.99
50057;BME280;36875;49.468;11.200;2023-10-13T04:49:04;97898.88;;;20.99;54.00
50057;BME280;36875;49.468;11.200;2023-10-13T04:51:36;97896.44;;;20.97;54.05
50057;BME280;36875;49.468;11.200;2023-10-13T04:54:21;97893.72;;;20.97;54.25
50057;BME280;36875;49.468;11.200;2023-10-13T04:56:59;97888.25;;;20.97;54.17
50057;BME280;36875;49.468;11.200;2023-10-13T04:59:45;97899.19;;;20.97;54.18
50057;BME280;36875;49.468;11.200;2023-10-13T05:02:22;97879.53;;;20.95;54.19
50057;BME280;36875;49.468;11.200;2023-10-13T05:05:03;97889.03;;;20.98;54.29
50057;BME280;36875;49.468;11.200;2023-10-13T05:07:32;97883.88;;;20.96;54.37
50057;BME280;36875;49.468;11.200;2023-10-13T05:10:17;97885.81;;;20.96;54.31
50057;BME280;36875;49.468;11.200;2023-10-13T05:13:02;97898.69;;;20.95;54.42
50057;BME280;36875;49.468;11.200;2023-10-13T05:15:47;97898.69;;;20.95;54.42
50057;BME280;36875;49.468;11.200;2023-10-13T05:18:32;97899.50;;;20.96;54.43
50057;BME280;36875;49.468;11.200;2023-10-13T05:21:16;97893.22;;;20.95;54.45
50057;BME280;36875;49.468;11.200;2023-10-13T05:24:00;97888.88;;;20.94;54.44
50057;BME280;36875;49.468;11.200;2023-10-13T05:26:45;97889.66;;;20.95;54.43
50057;BME280;36875;49.468;11.200;2023-10-13T05:29:29;97888.88;;;20.94;54.58
50057;BME280;36875;49.468;11.200;2023-10-13T05:32:13;97882.28;;;20.95;54.61
50057;BME280;36875;49.468;11.200;2023-10-13T05:34:57;97886.13;;;20.94;54.63
50057;BME280;36875;49.468;11.200;2023-10-13T05:37:42;97880.81;;;20.89;54.62
50057;BME280;36875;49.468;11.200;2023-10-13T05:40:26;97886.75;;;20.91;54.65
50057;BME280;36875;49.468;11.200;2023-10-13T05:43:11;97893.38;;;20.90;54.56
50057;BME280;36875;49.468;11.200;2023-10-13T05:46:00;97893.38;;;20.90;54.52
50057;BME280;36875;49.468;11.200;2023-10-13T05:48:45;97890.63;;;20.90;54.59
50057;BME280;36875;49.468;11.200;2023-10-13T05:51:25;97897.69;;;20.91;54.64
50057;BME280;36875;49.468;11.200;2023-10-13T05:53:57;97898.34;;;20.88;54.76
50057;BME280;36875;49.468;11.200;2023-10-13T05:56:38;97890.28;;;20.83;54.66
50057;BME280;36875;49.468;11.200;2023-10-13T05:59:23;97890.91;;;20.80;54.18
50057;BME280;36875;49.468;11.200;2023-10-13T06:02:08;97895.56;;;20.79;54.31
50057;BME280;36875;49.468;11.200;2023-10-13T06:04:52;97896.38;;;20.80;54.17
50057;BME280;36875;49.468;11.200;2023-10-13T06:07:36;97897.53;;;20.79;54.42
50057;BME280;36875;49.468;11.200;2023-10-13T06:10:20;97901.34;;;20.78;54.50
50057;BME280;36875;49.468;11.200;2023-10-13T06:13:03;97896.19;;;20.76;54.54
50057;BME280;36875;49.468;11.200;2023-10-13T06:15:49;97899.44;;;20.78;54.30
50057;BME280;36875;49.468;11.200;2023-10-13T06:18:33;97904.41;;;20.76;54.38
50057;BME280;36875;49.468;11.200;2023-10-13T06:21:17;97900.88;;;20.76;54.08
50057;BME280;36875;49.468;11.200;2023-10-13T06:24:01;97901.66;;;20.76;54.33
50057;BME280;36875;49.468;11.200;2023-10-13T06:26:47;97900.88;;;20.76;54.27
50057;BME280;36875;49.468;11.200;2023-10-13T06:29:31;97898.75;;;20.73;54.35
50057;BME280;36875;49.468;11.200;2023-10-13T06:31:58;97908.91;;;20.72;54.05
50057;BME280;36875;49.468;11.200;2023-10-13T06:34:23;97909.22;;;20.71;54.18
50057;BME280;36875;49.468;11.200;2023-10-13T06:37:03;97907.28;;;20.71;54.35
50057;BME280;36875;49.468;11.200;2023-10-13T06:39:38;97900.69;;;20.72;54.02
50057;BME280;36875;49.468;11.200;2023-10-13T06:42:03;97904.22;;;20.73;54.23
50057;BME280;36875;49.468;11.200;2023-10-13T06:44:30;97895.22;;;20.72;54.17
50057;BME280;36875;49.468;11.200;2023-10-13T06:46:59;97906.97;;;20.73;54.07
50057;BME280;36875;49.468;11.200;2023-10-13T06:49:29;97905.06;;;20.73;54.33
50057;BME280;36875;49.468;11.200;2023-10-13T06:51:55;97905.06;;;20.73;54.13
50057;BME280;36875;49.468;11.200;2023-10-13T06:54:26;97901.19;;;20.74;54.08
50057;BME280;36875;49.468;11.200;2023-10-13T06:56:53;97900.06;;;20.75;54.13
50057;BME280;36875;49.468;11.200;2023-10-13T06:59:19;97903.31;;;20.77;54.02
50057;BME280;36875;49.468;11.200;2023-10-13T07:01:45;97909.25;;;20.79;54.17
50057;BME280;36875;49.468;11.200;2023-10-13T07:04:14;97904.09;;;20.78;54.13
50057;BME280;36875;49.468;11.200;2023-10-13T07:06:41;97905.38;;;20.80;54.13
50057;BME280;36875;49.468;11.200;2023-10-13T07:09:14;97910.53;;;20.82;54.10
50057;BME280;36875;49.468;11.200;2023-10-13T07:11:58;97900.44;;;20.83;54.21
50057;BME280;36875;49.468;11.200;2023-10-13T07:14:26;97901.22;;;20.83;54.17
50057;BME280;36875;49.468;11.200;2023-10-13T07:16:56;97907.50;;;20.84;54.15
50057;BME280;36875;49.468;11.200;2023-10-13T07:19:25;97902.03;;;20.84;54.16
50057;BME280;36875;49.468;11.200;2023-10-13T07:21:53;97908.81;;;20.86;54.08
50057;BME280;36875;49.468;11.200;2023-10-13T07:24:24;97904.94;;;20.87;54.08
50057;BME280;36875;49.468;11.200;2023-10-13T07:26:50;97908.97;;;20.90;54.06
50057;BME280;36875;49.468;11.200;2023-10-13T07:29:23;97897.69;;;20.91;54.31
50057;BME280;36875;49.468;11.200;2023-10-13T07:31:50;97896.59;;;20.92;54.12
50057;BME280;36875;49.468;11.200;2023-10-13T07:34:16;97893.84;;;20.92;54.02
50057;BME280;36875;49.468;11.200;2023-10-13T07:36:53;97898.69;;;20.95;54.09
50057;BME280;36875;49.468;11.200;2023-10-13T07:39:24;97898.69;;;20.95;54.07
50057;BME280;36875;49.468;11.200;2023-10-13T07:41:51;97891.78;;;20.98;54.02
50057;BME280;36875;49.468;11.200;2023-10-13T07:44:19;97897.25;;;20.98;54.02
50057;BME280;36875;49.468;11.200;2023-10-13T07:46:50;97892.25;;;21.00;53.97
50057;BME280;36875;49.468;11.200;2023-10-13T07:49:27;97895.78;;;21.01;54.16
50057;BME280;36875;49.468;11.200;2023-10-13T07:51:58;97882.09;;;21.01;53.94
50057;BME280;36875;49.468;11.200;2023-10-13T07:54:26;97887.59;;;21.01;53.91
50057;BME280;36875;49.468;11.200;2023-10-13T07:56:52;97889.22;;;21.02;53.79
50057;BME280;36875;49.468;11.200;2023-10-13T07:59:20;97881.31;;;21.00;53.85
50057;BME280;36875;49.468;11.200;2023-10-13T08:01:47;97878.56;;;21.00;54.04
50057;BME280;36875;49.468;11.200;2023-10-13T08:04:13;97878.56;;;21.00;53.97
50057;BME280;36875;49.468;11.200;2023-10-13T08:06:40;97882.75;;;20.97;54.31
50057;BME280;36875;49.468;11.200;2023-10-13T08:09:07;97889.84;;;20.98;54.04
50057;BME280;36875;49.468;11.200;2023-10-13T08:11:34;97879.72;;;20.99;54.25
50057;BME280;36875;49.468;11.200;2023-10-13T08:14:01;97887.94;;;20.99;54.10
50057;BME280;36875;49.468;11.200;2023-10-13T08:16:36;97890.97;;;20.97;54.15
50057;BME280;36875;49.468;11.200;2023-10-13T08:19:25;97876.47;;;20.97;54.03
50057;BME280;36875;49.468;11.200;2023-10-13T08:22:05;97877.91;;;20.94;54.01
50057;BME280;36875;49.468;11.200;2023-10-13T08:24:44;97876.63;;;20.92;54.22
50057;BME280;36875;49.468;11.200;2023-10-13T08:27:10;97872.59;;;20.89;54.24
50057;BME280;36875;49.468;11.200;2023-10-13T08:29:42;97875.31;;;20.89;54.41
50057;BME280;36875;49.468;11.200;2023-10-13T08:32:20;97878.91;;;20.90;54.30
50057;BME280;36875;49.468;11.200;2023-10-13T08:34:54;97878.06;;;20.89;54.04
50057;BME280;36875;49.468;11.200;2023-10-13T08:37:21;97874.84;;;20.87;54.32
50057;BME280;36875;49.468;11.200;2023-10-13T08:39:48;97873.25;;;20.86;54.13
50057;BME280;36875;49.468;11.200;2023-10-13T08:42:30;97874.03;;;20.87;54.31
50057;BME280;36875;49.468;11.200;2023-10-13T08:45:07;97873.25;;;20.86;54.50
50057;BME280;36875;49.468;11.200;2023-10-13T08:47:52;97869.50;;;20.82;54.48
50057;BME280;36875;49.468;11.200;2023-10-13T08:50:34;97875.47;;;20.84;54.48
50057;BME280;36875;49.468;11.200;2023-10-13T08:53:18;97867.59;;;20.83;54.30
50057;BME280;36875;49.468;11.200;2023-10-13T08:55:58;97872.56;;;20.80;54.49
50057;BME280;36875;49.468;11.200;2023-10-13T08:58:30;97865.81;;;20.78;54.31
50057;BME280;36875;49.468;11.200;2023-10-13T09:01:14;97868.22;;;20.79;54.33
50057;BME280;36875;49.468;11.200;2023-10-13T09:04:00;97864.69;;;20.79;54.31
50057;BME280;36875;49.468;11.200;2023-10-13T09:06:45;97868.22;;;20.79;54.30
50057;BME280;36875;49.468;11.200;2023-10-13T09:09:26;97861.47;;;20.77;54.22
50057;BME280;36875;49.468;11.200;2023-10-13T09:12:10;97861.63;;;20.80;54.15
50057;BME280;36875;49.468;11.200;2023-10-13T09:14:36;97861.78;;;20.84;54.22
50057;BME280;36875;49.468;11.200;2023-10-13T09:17:05;97854.09;;;20.86;54.06
50057;BME280;36875;49.468;11.200;2023-10-13T09:19:49;97849.44;;;20.87;53.96
50057;BME280;36875;49.468;11.200;2023-10-13T09:22:22;97854.59;;;20.88;53.94
50057;BME280;36875;49.468;11.200;2023-10-13T09:25:04;97850.53;;;20.86;53.75
50057;BME280;36875;49.468;11.200;2023-10-13T09:27:39;97852.97;;;20.87;54.08
50057;BME280;36875;49.468;11.200;2023-10-13T09:30:06;97855.22;;;20.85;54.28
50057;BME280;36875;49.468;11.200;2023-10-13T09:32:46;97846.22;;;20.85;54.04
50057;BME280;36875;49.468;11.200;2023-10-13T09:35:16;97845.91;;;20.86;53.69
50057;BME280;36875;49.468;11.200;2023-10-13T09:37:42;97850.22;;;20.87;53.90
50057;BME280;36875;49.468;11.200;2023-10-13T09:40:16;97852.97;;;20.87;54.20
50057;BME280;36875;49.468;11.200;2023-10-13T09:42:53;97849.59;;;20.90;54.19
50057;BME280;36875;49.468;11.200;2023-10-13T09:45:24;97846.19;;;20.93;54.14
50057;BME280;36875;49.468;11.200;2023-10-13T09:47:52;97843.16;;;20.95;54.15
50057;BME280;36875;49.468;11.200;2023-10-13T09:50:23;97839.63;;;20.94;54.41
50057;BME280;36875;49.468;11.200;2023-10-13T09:52:59;97840.72;;;20.93;54.25
50057;BME280;36875;49.468;11.200;2023-10-13T09:55:27;97839.13;;;20.92;54.16
50057;BME280;36875;49.468;11.200;2023-10-13T09:58:02;97842.19;;;20.91;54.22
50057;BME280;36875;49.468;11.200;2023-10-13T10:00:37;97839.78;;;20.89;54.10
50057;BME280;36875;49.468;11.200;2023-10-13T10:03:13;97834.31;;;20.89;54.29
50057;BME280;36875;49.468;11.200;2023-10-13T10:06:09;97827.22;;;20.88;54.37
50057;BME280;36875;49.468;11.200;2023-10-13T10:08:44;97827.22;;;20.88;54.24
50057;BME280;36875;49.468;11.200;2023-10-13T10:11:31;97830.44;;;20.90;54.21
50057;BME280;36875;49.468;11.200;2023-10-13T10:14:10;97826.75;;;20.95;54.15
50057;BME280;36875;49.468;11.200;2023-10-13T10:16:45;97821.44;;;20.98;53.69
50057;BME280;36875;49.468;11.200;2023-10-13T10:19:14;97823.53;;;21.02;53.92
50057;BME280;36875;49.468;11.200;2023-10-13T10:21:40;97821.78;;;21.06;53.79
50057;BME280;36875;49.468;11.200;2023-10-13T10:24:16;97822.75;;;21.10;53.89
50057;BME280;36875;49.468;11.200;2023-10-13T10:26:55;97823.25;;;21.12;53.78
50057;BME280;36875;49.468;11.200;2023-10-13T10:29:23;97822.28;;;21.16;53.78
50057;BME280;36875;49.468;11.200;2023-10-13T10:31:48;97815.69;;;21.17;53.59
50057;BME280;36875;49.468;11.200;2023-10-13T10:34:15;97809.69;;;21.15;53.67
50057;BME280;36875;49.468;11.200;2023-10-13T10:36:53;97812.78;;;21.14;53.77
50057;BME280;36875;49.468;11.200;2023-10-13T10:39:18;97813.91;;;21.13;53.48
50057;BME280;36875;49.468;11.200;2023-10-13T10:41:44;97802.47;;;21.11;53.61
50057;BME280;36875;49.468;11.200;2023-10-13T10:44:10;97805.53;;;21.18;53.50
50057;BME280;36875;49.468;11.200;2023-10-13T10:46:43;97802.00;;;21.17;53.47
50057;BME280;36875;49.468;11.200;2023-10-13T10:49:17;97798.91;;;21.19;53.60
50057;BME280;36875;49.468;11.200;2023-10-13T10:51:57;97797.50;;;21.22;53.48
50057;BME280;36875;49.468;11.200;2023-10-13T10:54:25;97788.78;;;21.20;53.55
50057;BME280;36875;49.468;11.200;2023-10-13T10:56:57;97783.97;;;21.25;53.53
50057;BME280;36875;49.468;11.200;2023-10-13T10:59:34;97782.66;;;21.31;53.14
50057;BME280;36875;49.468;11.200;2023-10-13T11:02:04;97775.75;;;21.34;53.40
50057;BME280;36875;49.468;11.200;2023-10-13T11:04:29;97774.28;;;21.36;53.50
50057;BME280;36875;49.468;11.200;2023-10-13T11:07:06;97781.88;;;21.40;53.03
50057;BME280;36875;49.468;11.200;2023-10-13T11:09:34;97772.03;;;21.38;52.95
50057;BME280;36875;49.468;11.200;2023-10-13T11:12:09;97766.72;;;21.42;53.08
50057;BME280;36875;49.468;11.200;2023-10-13T11:14:40;97760.31;;;21.47;53.04
50057;BME280;36875;49.468;11.200;2023-10-13T11:17:07;97764.16;;;21.54;52.68
50057;BME280;36875;49.468;11.200;2023-10-13T11:19:46;97747.72;;;21.54;52.61
50057;BME280;36875;49.468;11.200;2023-10-13T11:22:12;97751.44;;;21.59;52.44
50057;BME280;36875;49.468;11.200;2023-10-13T11:24:54;97746.91;;;21.63;52.57
50057;BME280;36875;49.468;11.200;2023-10-13T11:27:20;97735.63;;;21.64;52.56
50057;BME280;36875;49.468;11.200;2023-10-13T11:30:09;97736.09;;;21.66;52.35
50057;BME280;36875;49.468;11.200;2023-10-13T11:32:40;97724.50;;;21.69;52.79
50057;BME280;36875;49.468;11.200;2023-10-13T11:35:07;97716.59;;;21.77;52.48
50057;BME280;36875;49.468;11.200;2023-10-13T11:37:36;97709.97;;;21.78;52.22
50057;BME280;36875;49.468;11.200;2023-10-13T11:40:09;97716.13;;;21.74;52.29
50057;BME280;36875;49.468;11.200;2023-10-13T11:42:37;97708.38;;;21.77;52.26
50057;BME280;36875;49.468;11.200;2023-10-13T11:45:03;97706.75;;;21.75;52.61
50057;BME280;36875;49.468;11.200;2023-10-13T11:47:50;97705.00;;;21.71;52.41
50057;BME280;36875;49.468;11.200;2023-10-13T11:50:24;97705.81;;;21.71;52.68
50057;BME280;36875;49.468;11.200;2023-10-13T11:52:58;97700.47;;;21.75;52.72
50057;BME280;36875;49.468;11.200;2023-10-13T11:55:23;97696.94;;;21.74;52.81
50057;BME280;36875;49.468;11.200;2023-10-13T11:57:49;97688.72;;;21.74;52.60
50057;BME280;36875;49.468;11.200;2023-10-13T12:00:16;97695.78;;;21.75;52.81
50057;BME280;36875;49.468;11.200;2023-10-13T12:02:51;97695.78;;;21.75;52.61
50057;BME280;36875;49.468;11.200;2023-10-13T12:05:35;97686.63;;;21.71;52.80
50057;BME280;36875;49.468;11.200;2023-10-13T12:08:14;97685.00;;;21.70;52.75
50057;BME280;36875;49.468;11.200;2023-10-13T12:10:47;97675.06;;;21.66;52.67
50057;BME280;36875;49.468;11.200;2023-10-13T12:13:25;97673.44;;;21.65;52.78
50057;BME280;36875;49.468;11.200;2023-10-13T12:15:50;97667.16;;;21.64;52.65
50057;BME280;36875;49.468;11.200;2023-10-13T12:18:19;97673.59;;;21.68;52.55
50057;BME280;36875;49.468;11.200;2023-10-13T12:20:44;97669.06;;;21.72;52.70
50057;BME280;36875;49.468;11.200;2023-10-13T12:23:14;97670.81;;;21.77;52.40
50057;BME280;36875;49.468;11.200;2023-10-13T12:25:44;97674.03;;;21.79;52.54
50057;BME280;36875;49.468;11.200;2023-10-13T12:28:21;97664.38;;;21.82;52.22
50057;BME280;36875;49.468;11.200;2023-10-13T12:30:48;97657.75;;;21.83;52.35
50057;BME280;36875;49.468;11.200;2023-10-13T12:33:14;97650.00;;;21.85;52.48
50057;BME280;36875;49.468;11.200;2023-10-13T12:35:43;97651.63;;;21.86;52.36
50057;BME280;36875;49.468;11.200;2023-10-13T12:38:29;97644.19;;;21.86;51.94
50057;BME280;36875;49.468;11.200;2023-10-13T12:41:12;97640.19;;;21.84;52.27
50057;BME280;36875;49.468;11.200;2023-10-13T12:43:56;97641.47;;;21.78;51.98
50057;BME280;36875;49.468;11.200;2023-10-13T12:46:40;97643.47;;;21.68;52.23
50057;BME280;36875;49.468;11.200;2023-10-13T12:49:24;97641.41;;;21.65;52.11
50057;BME280;36875;49.468;11.200;2023-10-13T12:52:11;97632.34;;;21.65;51.84
50057;BME280;36875;49.468;11.200;2023-10-13T12:55:00;97639.16;;;21.59;52.33
50057;BME280;36875;49.468;11.200;2023-10-13T12:57:32;97630.94;;;21.59;52.47
50057;BME280;36875;49.468;11.200;2023-10-13T12:59:58;97636.09;;;21.60;52.60
50057;BME280;36875;49.468;11.200;2023-10-13T13:02:25;97637.03;;;21.64;52.54
50057;BME280;36875;49.468;11.200;2023-10-13T13:04:50;97630.91;;;21.67;52.39
50057;BME280;36875;49.468;11.200;2023-10-13T13:07:32;97623.03;;;21.66;52.49
50057;BME280;36875;49.468;11.200;2023-10-13T13:10:09;97617.06;;;21.64;52.38
50057;BME280;36875;49.468;11.200;2023-10-13T13:12:36;97617.06;;;21.64;52.70
50057;BME280;36875;49.468;11.200;2023-10-13T13:15:02;97616.91;;;21.69;52.73
50057;BME280;36875;49.468;11.200;2023-10-13T13:17:34;97613.94;;;21.74;52.42
50057;BME280;36875;49.468;11.200;2023-10-13T13:19:59;97609.63;;;21.73;52.44
50057;BME280;36875;49.468;11.200;2023-10-13T13:22:25;97615.91;;;21.73;52.55